Time;durP1;ratioP1;P1;durP2;ratioP2;P2;SDS_P1;SDS_P2;PMS_P1;PMS_P2;Temp;Humidity;BMP_temperature;BMP_pressure;BME280_temperature;BME280_humidity;BME280_pressure;Samples;Min_cycle;Max_cycle;Signal;HPM_P1;HPM_P2
2022/04/19 00:00:11;;;;;;;4.90;3.40;;;;;;;6.52;49.28;99804.08;130317;1268;108716;-79
2022/04/19 00:03:36;;;;;;;6.10;3.60;;;;;;;6.50;49.39;99800.08;130326;1268;110374;-81
2022/04/19 00:06:41;;;;;;;4.90;3.40;;;;;;;6.44;49.49;99797.58;130516;1268;108850;-82
2022/04/19 00:09:47;;;;;;;5.20;3.50;;;;;;;6.40;49.73;99794.46;130635;1268;109015;-79
2022/04/19 00:12:52;;;;;;;6.20;3.20;;;;;;;6.39;49.77;99794.34;131616;1268;108828;-81
2022/04/19 00:15:58;;;;;;;5.10;3.30;;;;;;;6.38;50.00;99792.16;130781;1268;108699;-81
2022/04/19 00:19:03;;;;;;;4.70;3.50;;;;;;;6.33;49.96;99792.79;130333;1268;108686;-80
2022/04/19 00:22:09;;;;;;;5.70;3.50;;;;;;;6.31;50.24;99793.29;130299;1268;108861;-79
2022/04/19 00:25:15;;;;;;;5.10;3.80;;;;;;;6.31;50.36;99790.67;130212;1268;179799;-80
2022/04/19 00:28:20;;;;;;;5.90;3.50;;;;;;;6.30;50.37;99786.65;130295;1268;108843;-80
2022/04/19 00:31:26;;;;;;;6.80;3.60;;;;;;;6.31;50.71;99784.31;130540;1268;107523;-81
2022/04/19 00:34:32;;;;;;;6.00;3.80;;;;;;;6.30;50.65;99782.95;130728;1268;108975;-80
2022/04/19 00:37:38;;;;;;;6.60;3.60;;;;;;;6.29;50.83;99781.07;130521;1267;108872;-78
2022/04/19 00:40:44;;;;;;;4.60;3.20;;;;;;;6.30;51.05;99776.09;130430;1268;108748;-79
2022/04/19 00:43:49;;;;;;;5.80;3.90;;;;;;;6.31;50.97;99772.45;130482;1268;107446;-79
2022/04/19 00:46:55;;;;;;;5.90;3.60;;;;;;;6.32;51.13;99766.58;130319;1268;108832;-78
2022/04/19 00:50:02;;;;;;;6.10;3.40;;;;;;;6.32;51.15;99760.48;130284;1268;108925;-78
2022/04/19 00:53:11;;;;;;;5.20;3.80;;;;;;;6.32;51.45;99760.02;130253;1268;108945;-78
2022/04/19 00:56:17;;;;;;;6.30;3.90;;;;;;;6.29;51.43;99757.56;130381;1268;108900;-78
2022/04/19 00:59:24;;;;;;;4.20;3.40;;;;;;;6.27;51.47;99756.73;130274;1268;108989;-78
2022/04/19 01:02:30;;;;;;;5.80;3.50;;;;;;;6.26;51.73;99747.82;130163;1268;108785;-78
2022/04/19 01:05:37;;;;;;;4.20;3.10;;;;;;;6.23;51.80;99752.62;130830;1268;108780;-78
2022/04/19 01:08:44;;;;;;;5.50;3.60;;;;;;;6.20;52.06;99747.28;130503;1268;108857;-79
2022/04/19 01:15:14;;;;;;;5.60;3.90;;;;;;;6.17;52.18;99742.06;130439;1268;108873;-77
2022/04/19 01:18:53;;;;;;;6.50;3.50;;;;;;;6.17;52.36;99738.75;130356;1270;108757;-77
2022/04/19 01:22:00;;;;;;;6.50;3.40;;;;;;;6.16;52.34;99737.35;130385;1268;108857;-78
2022/04/19 01:25:13;;;;;;;5.20;3.70;;;;;;;6.16;52.46;99732.79;130845;1268;108719;-78
2022/04/19 01:28:20;;;;;;;5.10;3.30;;;;;;;6.17;52.59;99734.46;130413;1268;109030;-79
2022/04/19 01:31:25;;;;;;;5.60;3.50;;;;;;;6.17;52.87;99731.10;130338;1268;108764;-79
2022/04/19 01:34:32;;;;;;;4.60;3.60;;;;;;;6.17;52.98;99727.95;130857;1268;108682;-77
2022/04/19 01:37:42;;;;;;;5.70;4.10;;;;;;;6.17;53.18;99727.43;130995;1268;108652;-77
2022/04/19 01:40:48;;;;;;;5.80;3.40;;;;;;;6.17;53.17;99723.36;130419;1268;108814;-78
2022/04/19 01:44:14;;;;;;;4.90;3.00;;;;;;;6.17;53.61;99723.71;130341;1268;108523;-78
2022/04/19 01:47:19;;;;;;;5.30;3.20;;;;;;;6.18;53.57;99723.23;130286;1268;108735;-80
2022/04/19 01:50:29;;;;;;;5.50;3.50;;;;;;;6.25;53.76;99724.95;130352;1268;107660;-81
2022/04/19 01:53:35;;;;;;;5.10;3.50;;;;;;;6.30;53.94;99724.17;130402;1268;108756;-81
2022/04/19 01:56:44;;;;;;;5.20;3.20;;;;;;;6.36;54.03;99719.55;130511;1268;108879;-80
2022/04/19 01:59:55;;;;;;;5.90;3.60;;;;;;;6.38;54.08;99720.58;130540;1268;108858;-81
2022/04/19 02:03:20;;;;;;;5.30;3.20;;;;;;;6.39;54.68;99717.68;130317;1268;108733;-80
2022/04/19 02:06:26;;;;;;;8.80;6.40;;;;;;;6.38;54.25;99717.56;130315;1268;108701;-79
2022/04/19 02:09:33;;;;;;;9.30;6.20;;;;;;;6.38;54.57;99717.20;130334;1268;108839;-80
2022/04/19 02:12:39;;;;;;;6.60;4.40;;;;;;;6.39;54.86;99716.98;130438;1268;108914;-81
2022/04/19 02:16:09;;;;;;;6.70;4.20;;;;;;;6.37;54.90;99712.40;130207;1270;109492;-81
2022/04/19 02:19:16;;;;;;;7.10;5.00;;;;;;;6.35;55.08;99711.17;130601;1268;108695;-80
2022/04/19 02:22:22;;;;;;;7.00;4.70;;;;;;;6.29;55.23;99709.05;130492;1268;109000;-82
2022/04/19 02:25:29;;;;;;;5.20;4.00;;;;;;;6.27;56.13;99711.17;130500;1268;108783;-80
2022/04/19 02:28:36;;;;;;;6.60;4.90;;;;;;;6.16;55.84;99705.20;130534;1267;108696;-80
2022/04/19 02:31:49;;;;;;;5.90;4.60;;;;;;;6.04;55.89;99714.95;130474;1268;108854;-77
2022/04/19 02:34:55;;;;;;;14.50;9.00;;;;;;;5.97;56.32;99711.59;130304;1268;108869;-79
2022/04/19 02:38:01;;;;;;;7.80;4.40;;;;;;;5.86;57.08;99714.46;130331;1268;108771;-78
2022/04/19 02:41:12;;;;;;;6.60;5.00;;;;;;;5.69;56.91;99711.50;130191;1268;108735;-78
2022/04/19 02:44:18;;;;;;;6.90;5.00;;;;;;;5.50;58.71;99711.04;130230;1268;108593;-78
2022/04/19 02:47:43;;;;;;;7.10;5.30;;;;;;;5.31;57.53;99708.15;130284;1268;108940;-78
2022/04/19 02:50:49;;;;;;;8.50;5.60;;;;;;;5.22;57.73;99712.10;130287;1268;108711;-78
2022/04/19 02:53:55;;;;;;;6.90;4.60;;;;;;;5.16;57.33;99711.16;130293;1268;108704;-78
2022/04/19 02:57:02;;;;;;;5.60;4.40;;;;;;;5.13;57.37;99710.00;130288;1268;108939;-78
2022/04/19 03:00:10;;;;;;;6.60;4.60;;;;;;;5.17;57.80;99713.41;130263;1268;108895;-79
2022/04/19 03:03:15;;;;;;;10.00;6.20;;;;;;;5.17;57.83;99710.89;130205;1268;108706;-79
2022/04/19 03:06:21;;;;;;;6.80;4.50;;;;;;;5.20;57.62;99707.13;130271;1268;108758;-77
2022/04/19 03:09:27;;;;;;;6.90;4.50;;;;;;;5.24;57.77;99704.13;130289;1268;108864;-76
2022/04/19 03:12:32;;;;;;;7.30;5.40;;;;;;;5.34;57.79;99705.77;130301;1268;108656;-77
2022/04/19 03:15:46;;;;;;;8.10;6.10;;;;;;;5.44;57.93;99708.23;130448;1268;108669;-79
2022/04/19 03:18:52;;;;;;;6.90;5.30;;;;;;;5.49;57.83;99711.29;130428;1268;108757;-80
2022/04/19 03:22:00;;;;;;;8.50;4.80;;;;;;;5.48;58.20;99716.30;130621;1268;108908;-81
2022/04/19 03:28:32;;;;;;;10.00;6.70;;;;;;;5.38;58.42;99714.91;130586;1268;108764;-80
2022/04/19 03:31:38;;;;;;;8.00;5.80;;;;;;;5.31;58.36;99718.66;130579;1268;108770;-77
2022/04/19 03:34:45;;;;;;;6.40;4.80;;;;;;;5.27;58.62;99712.66;130506;1268;108931;-77
2022/04/19 03:37:52;;;;;;;7.60;4.60;;;;;;;5.21;58.48;99717.42;130346;1268;108662;-78
2022/04/19 03:40:58;;;;;;;5.70;3.80;;;;;;;5.20;58.61;99714.02;130496;1268;107669;-78
2022/04/19 03:44:04;;;;;;;7.80;4.60;;;;;;;5.23;58.70;99715.38;130443;1268;108756;-78
2022/04/19 03:47:10;;;;;;;6.90;5.30;;;;;;;5.32;58.85;99715.94;130356;1268;108934;-79
2022/04/19 03:50:16;;;;;;;7.40;4.50;;;;;;;5.44;58.81;99718.06;130280;1268;108711;-79
2022/04/19 03:53:21;;;;;;;8.40;5.20;;;;;;;5.47;58.83;99719.23;130311;1268;108709;-79
2022/04/19 03:56:27;;;;;;;8.40;4.90;;;;;;;5.47;59.22;99720.79;130302;1268;108841;-78
2022/04/19 03:59:34;;;;;;;7.70;5.00;;;;;;;5.48;59.23;99722.48;130310;1268;108852;-78
2022/04/19 04:02:39;;;;;;;8.50;5.40;;;;;;;5.50;58.96;99721.75;130266;1268;108969;-79
2022/04/19 04:05:45;;;;;;;7.90;4.70;;;;;;;5.53;59.22;99721.39;131350;1268;108750;-81
2022/04/19 04:08:51;;;;;;;6.90;4.40;;;;;;;5.57;59.32;99719.27;130982;1268;108792;-81
2022/04/19 04:11:57;;;;;;;8.50;4.70;;;;;;;5.56;59.55;99726.58;130421;1268;108891;-81
2022/04/19 04:15:03;;;;;;;7.50;5.10;;;;;;;5.52;59.76;99724.62;130492;1268;108761;-80
2022/04/19 04:18:09;;;;;;;7.60;4.50;;;;;;;5.51;60.13;99730.19;130449;1268;108778;-80
2022/04/19 04:21:15;;;;;;;7.70;4.50;;;;;;;5.48;59.89;99727.48;130560;1268;108779;-82
2022/04/19 04:24:21;;;;;;;5.80;3.50;;;;;;;5.51;59.93;99732.48;130476;1268;107541;-81
2022/04/19 04:27:26;;;;;;;6.70;4.30;;;;;;;5.53;60.87;99733.95;130483;1268;108954;-83
2022/04/19 04:30:33;;;;;;;7.60;4.90;;;;;;;5.57;60.35;99734.58;130483;1268;107665;-80
2022/04/19 04:33:40;;;;;;;9.70;6.10;;;;;;;5.67;60.27;99735.15;130481;1268;109019;-80
2022/04/19 04:36:47;;;;;;;7.30;5.00;;;;;;;5.72;60.33;99736.50;130511;1268;108710;-81
2022/04/19 04:39:57;;;;;;;7.10;4.50;;;;;;;5.77;60.24;99741.02;130501;1268;108630;-81
2022/04/19 04:43:06;;;;;;;5.60;4.00;;;;;;;5.79;60.32;99738.00;130593;1268;108875;-80
2022/04/19 04:49:39;;;;;;;7.50;5.80;;;;;;;5.99;60.10;99743.09;130556;1268;108775;-79
2022/04/19 04:52:45;;;;;;;9.50;5.40;;;;;;;6.08;60.10;99742.16;130244;1268;108834;-79
2022/04/19 04:55:51;;;;;;;7.10;5.10;;;;;;;6.16;60.38;99741.98;130468;1268;109571;-80
2022/04/19 04:59:02;;;;;;;6.30;4.00;;;;;;;6.16;60.21;99744.44;130485;1268;108697;-80
2022/04/19 05:02:10;;;;;;;8.00;4.70;;;;;;;6.18;60.02;99745.19;130521;1268;109065;-79
2022/04/19 05:05:17;;;;;;;6.00;4.50;;;;;;;6.18;60.39;99747.13;130224;1268;108757;-79
2022/04/19 05:08:22;;;;;;;6.50;4.60;;;;;;;6.18;60.28;99752.05;130518;1268;108867;-80
2022/04/19 05:11:29;;;;;;;6.50;4.40;;;;;;;6.12;60.38;99745.52;130470;1268;108719;-79
2022/04/19 05:14:35;;;;;;;6.10;4.50;;;;;;;6.04;60.38;99745.34;130279;1269;108791;-81
2022/04/19 05:17:40;;;;;;;12.10;6.10;;;;;;;6.05;60.53;99741.73;130490;1268;108786;-82
2022/04/19 05:20:46;;;;;;;7.70;4.60;;;;;;;6.22;60.78;99742.16;130515;1270;108750;-81
2022/04/19 05:23:52;;;;;;;7.20;5.00;;;;;;;6.39;61.11;99744.85;130743;1268;108694;-80
2022/04/19 05:27:01;;;;;;;9.40;5.60;;;;;;;6.53;60.74;99748.23;130375;1268;108774;-82
2022/04/19 05:30:09;;;;;;;7.60;5.10;;;;;;;6.76;60.62;99757.12;130635;1268;108708;-83
2022/04/19 05:33:15;;;;;;;9.20;6.00;;;;;;;7.01;60.70;99752.27;131064;1268;108902;-84
2022/04/19 05:36:22;;;;;;;8.90;6.90;;;;;;;7.30;60.52;99757.16;131370;1268;109042;-83
2022/04/19 05:39:29;;;;;;;9.90;8.00;;;;;;;7.43;59.81;99754.77;130587;1268;108634;-83
2022/04/19 05:42:35;;;;;;;9.90;7.60;;;;;;;7.45;60.21;99758.43;130460;1268;108779;-78
2022/04/19 05:45:42;;;;;;;11.10;8.30;;;;;;;7.51;60.32;99759.30;130597;1268;108836;-84
2022/04/19 05:48:49;;;;;;;10.90;8.10;;;;;;;7.61;60.09;99758.36;130448;1267;108989;-83
2022/04/19 05:51:54;;;;;;;11.10;8.30;;;;;;;7.58;60.01;99757.96;130493;1268;109129;-84
2022/04/19 05:55:00;;;;;;;11.60;8.40;;;;;;;7.58;60.17;99765.16;130482;1268;108944;-82
2022/04/19 05:58:06;;;;;;;10.40;8.50;;;;;;;7.61;60.11;99768.57;130548;1268;108689;-89
2022/04/19 06:01:11;;;;;;;11.40;8.60;;;;;;;7.62;59.90;99773.33;130522;1268;107617;-83
2022/04/19 06:07:46;;;;;;;12.20;9.40;;;;;;;7.64;59.80;99769.17;130561;1268;108721;-82
2022/04/19 06:10:51;;;;;;;;;;;;;;;7.66;59.46;99771.30;130791;1266;108756;-81
2022/04/19 06:13:58;;;;;;;14.00;10.50;;;;;;;7.69;59.14;99772.78;130465;1267;108761;-84
2022/04/19 06:17:04;;;;;;;12.30;9.30;;;;;;;7.76;59.46;99772.87;130962;1267;108763;-79
2022/04/19 06:20:12;;;;;;;13.30;10.50;;;;;;;7.84;59.46;99775.12;130538;1268;108748;-78
2022/04/19 06:23:18;;;;;;;13.30;9.20;;;;;;;7.91;59.14;99777.23;130449;1267;108741;-79
2022/04/19 06:26:23;;;;;;;11.40;8.30;;;;;;;7.98;58.69;99783.70;130631;1267;108688;-80
2022/04/19 06:29:31;;;;;;;11.90;9.10;;;;;;;8.05;58.55;99783.74;130826;1267;108789;-76
2022/04/19 06:32:38;;;;;;;10.70;8.30;;;;;;;8.05;58.39;99783.35;130533;1268;109778;-76
2022/04/19 06:35:44;;;;;;;15.30;10.40;;;;;;;8.03;58.52;99785.55;130359;1268;108948;-75
2022/04/19 06:38:49;;;;;;;13.90;9.10;;;;;;;8.03;58.65;99788.64;130328;1268;107048;-83
2022/04/19 06:41:55;;;;;;;22.50;13.30;;;;;;;7.98;58.32;99791.08;130544;1268;108695;-88
2022/04/19 06:45:02;;;;;;;10.60;7.80;;;;;;;7.89;57.98;99800.66;130666;1268;108922;-81
2022/04/19 06:48:10;;;;;;;8.10;6.20;;;;;;;7.74;57.78;99803.88;130337;1268;109609;-78
2022/04/19 06:51:17;;;;;;;7.90;6.40;;;;;;;7.60;58.01;99805.16;130329;1268;107834;-76
2022/04/19 06:54:23;;;;;;;7.80;6.30;;;;;;;7.51;58.10;99809.94;130338;1268;108692;-81
2022/04/19 06:57:39;;;;;;;10.50;5.60;;;;;;;7.38;58.14;99812.65;130577;1268;108743;-81
2022/04/19 07:00:46;;;;;;;8.70;6.50;;;;;;;7.34;58.37;99820.88;130464;1268;108731;-81
2022/04/19 07:03:52;;;;;;;10.50;7.40;;;;;;;7.36;58.40;99826.74;130433;1268;108811;-81
2022/04/19 07:07:13;;;;;;;8.20;6.10;;;;;;;7.40;57.96;99833.88;130669;1267;108676;-80
2022/04/19 07:10:21;;;;;;;8.20;5.50;;;;;;;7.46;58.20;99835.44;130670;1267;107408;-81
2022/04/19 07:13:30;;;;;;;8.10;6.00;;;;;;;7.46;58.15;99840.93;130732;1267;108961;-81
2022/04/19 07:16:43;;;;;;;9.00;5.60;;;;;;;7.37;57.83;99847.50;130446;1267;108267;-91
2022/04/19 07:26:41;;;;;;;8.90;6.60;;;;;;;7.19;58.66;99853.36;130650;1267;109140;-79
2022/04/19 07:29:49;;;;;;;8.50;6.10;;;;;;;7.24;58.68;99858.05;130421;1268;109018;-79
2022/04/19 07:32:55;;;;;;;7.70;6.00;;;;;;;7.29;58.38;99861.33;130237;1268;108655;-78
2022/04/19 07:36:04;;;;;;;8.30;6.20;;;;;;;7.37;58.84;99864.14;130329;1268;108689;-77
2022/04/19 07:39:11;;;;;;;9.10;6.70;;;;;;;7.46;58.64;99865.59;130273;1270;108911;-78
2022/04/19 07:42:19;;;;;;;9.00;7.00;;;;;;;7.45;58.69;99871.48;130204;1268;108814;-80
2022/04/19 07:45:25;;;;;;;9.20;7.00;;;;;;;7.46;58.90;99875.67;130247;1268;108738;-78
2022/04/19 07:48:31;;;;;;;8.40;6.70;;;;;;;7.46;59.08;99880.59;130241;1270;108673;-75
2022/04/19 07:51:36;;;;;;;7.80;6.80;;;;;;;7.48;59.14;99878.83;130283;1268;106793;-78
2022/04/19 07:54:43;;;;;;;8.60;6.90;;;;;;;7.53;59.36;99885.86;130216;1268;108622;-80
2022/04/19 07:57:48;;;;;;;8.90;6.60;;;;;;;7.45;59.49;99889.23;130349;1268;108692;-79
2022/04/19 08:00:55;;;;;;;8.80;6.90;;;;;;;7.32;59.34;99891.27;130540;1268;108781;-75
2022/04/19 08:04:00;;;;;;;8.10;6.60;;;;;;;7.31;59.78;99894.75;130327;1268;107371;-80
2022/04/19 08:07:06;;;;;;;8.20;6.70;;;;;;;7.32;59.64;99898.04;130336;1268;108937;-77
2022/04/19 08:10:12;;;;;;;7.80;5.90;;;;;;;7.31;59.37;99897.20;130493;1268;108954;-82
2022/04/19 08:13:19;;;;;;;9.80;7.50;;;;;;;7.36;59.36;99903.69;130552;1268;108767;-79
2022/04/19 08:16:24;;;;;;;23.40;16.30;;;;;;;7.36;59.60;99909.89;130513;1267;108785;-79
2022/04/19 08:19:30;;;;;;;10.70;7.50;;;;;;;7.43;59.72;99909.00;130202;1270;108884;-76
2022/04/19 08:22:36;;;;;;;7.70;6.10;;;;;;;7.60;59.68;99916.17;130209;1268;108665;-74
2022/04/19 08:25:44;;;;;;;7.50;5.90;;;;;;;7.78;59.45;99920.10;130288;1268;109057;-76
2022/04/19 08:28:50;;;;;;;9.90;7.10;;;;;;;7.90;59.68;99924.22;130307;1270;107288;-82
2022/04/19 08:31:56;;;;;;;7.40;5.40;;;;;;;7.93;59.58;99922.98;130281;1268;108709;-79
2022/04/19 08:35:02;;;;;;;7.50;5.50;;;;;;;7.91;59.35;99925.50;130257;1268;108911;-80
2022/04/19 08:38:07;;;;;;;7.60;5.70;;;;;;;7.91;59.51;99930.98;130449;1268;108940;-83
2022/04/19 08:41:14;;;;;;;8.70;6.60;;;;;;;7.93;59.14;99931.87;130437;1267;107422;-80
2022/04/19 08:44:20;;;;;;;7.30;5.90;;;;;;;7.93;59.38;99936.79;130315;1267;108668;-81
2022/04/19 08:47:26;;;;;;;9.80;7.70;;;;;;;7.90;59.23;99935.35;130336;1268;108780;-81
2022/04/19 08:50:32;;;;;;;9.70;7.80;;;;;;;7.89;59.10;99940.19;130320;1268;108905;-81
2022/04/19 09:00:28;;;;;;;9.00;7.80;;;;;;;8.01;59.16;99947.01;130318;1269;108656;-80
2022/04/19 09:03:34;;;;;;;11.60;9.00;;;;;;;8.09;59.07;99952.73;130300;1268;108741;-80
2022/04/19 09:06:54;;;;;;;10.40;8.50;;;;;;;8.14;59.01;99947.77;130260;1268;109115;-80
2022/04/19 09:10:03;;;;;;;9.90;8.50;;;;;;;8.23;58.99;99946.71;130291;1268;108795;-79
2022/04/19 09:13:09;;;;;;;10.50;9.20;;;;;;;8.26;59.05;99951.94;130270;1268;108695;-80
2022/04/19 09:16:15;;;;;;;10.50;8.90;;;;;;;8.29;59.04;99956.79;130215;1268;107738;-82
2022/04/19 09:19:29;;;;;;;10.90;8.90;;;;;;;8.39;58.82;99959.55;130262;1268;108782;-80
2022/04/19 09:22:36;;;;;;;10.40;9.00;;;;;;;8.56;58.85;99960.88;130300;1268;108964;-79
2022/04/19 09:25:41;;;;;;;11.90;10.10;;;;;;;8.74;58.80;99962.63;130279;1268;108871;-81
2022/04/19 09:28:47;;;;;;;11.30;9.30;;;;;;;8.87;58.56;99962.08;130321;1268;108760;-79
2022/04/19 09:31:57;;;;;;;9.80;8.70;;;;;;;9.06;58.42;99957.23;130254;1268;108587;-79
2022/04/19 09:35:03;;;;;;;9.90;8.90;;;;;;;9.24;57.88;99963.50;130279;1268;108896;-79
2022/04/19 09:38:09;;;;;;;10.60;9.20;;;;;;;9.37;58.00;99962.13;130220;1268;108173;-80
2022/04/19 09:41:17;;;;;;;13.60;10.40;;;;;;;9.54;57.60;99965.49;130251;1268;108789;-80
2022/04/19 09:44:23;;;;;;;13.90;11.20;;;;;;;9.71;57.53;99966.73;130253;1271;108936;-80
2022/04/19 09:47:28;;;;;;;11.00;9.40;;;;;;;9.81;57.22;99968.39;130264;1268;108961;-80
2022/04/19 09:50:34;;;;;;;10.50;9.20;;;;;;;9.92;57.41;99966.83;130260;1268;108778;-79
2022/04/19 09:53:43;;;;;;;10.10;8.50;;;;;;;10.04;57.00;99968.58;130512;1268;108858;-77
2022/04/19 09:56:50;;;;;;;10.50;9.40;;;;;;;10.10;56.61;99972.98;130589;1267;108840;-77
2022/04/19 09:59:56;;;;;;;10.70;9.30;;;;;;;10.20;56.58;99973.34;130432;1268;108700;-79
2022/04/19 10:09:49;;;;;;;12.00;8.90;;;;;;;10.36;56.06;99984.53;130429;1268;108765;-81
2022/04/19 10:12:57;;;;;;;17.10;13.00;;;;;;;10.42;55.58;99983.39;130519;1267;108817;-76
2022/04/19 10:16:04;;;;;;;11.80;10.00;;;;;;;10.53;55.25;99982.12;130419;1267;108648;-77
2022/04/19 10:19:14;;;;;;;11.00;9.80;;;;;;;10.57;55.58;99983.77;130573;1267;108714;-76
2022/04/19 10:22:20;;;;;;;11.40;9.30;;;;;;;10.68;55.17;99986.05;130595;1269;108662;-76
2022/04/19 10:25:25;;;;;;;11.00;9.80;;;;;;;10.67;55.14;99983.70;130430;1268;108675;-77
2022/04/19 10:28:31;;;;;;;11.80;9.20;;;;;;;10.75;54.68;99984.97;130490;1268;108917;-76
2022/04/19 10:31:37;;;;;;;9.90;8.90;;;;;;;10.83;54.85;99984.98;130408;1267;108963;-77
2022/04/19 10:34:44;;;;;;;10.40;9.40;;;;;;;10.88;54.46;99991.30;130463;1267;108692;-77
2022/04/19 10:38:20;;;;;;;11.80;10.40;;;;;;;10.97;54.57;99994.55;130417;1267;108752;-79
2022/04/19 10:41:48;;;;;;;10.50;9.30;;;;;;;11.07;54.32;99996.27;130474;1267;108946;-77
2022/04/19 10:44:55;;;;;;;11.00;8.70;;;;;;;11.08;54.13;99999.44;130532;1267;108848;-78
2022/04/19 10:48:08;;;;;;;11.00;9.10;;;;;;;10.99;53.60;99996.64;130416;1267;108817;-79
2022/04/19 10:51:30;;;;;;;10.40;8.70;;;;;;;10.96;53.70;99998.90;130461;1268;108692;-80
2022/04/19 10:55:04;;;;;;;11.50;9.50;;;;;;;10.96;53.74;100000.36;130411;1267;109254;-79
2022/04/19 10:58:17;;;;;;;10.90;8.90;;;;;;;10.91;53.20;99997.81;130434;1267;108528;-80
2022/04/19 11:01:31;;;;;;;12.70;10.20;;;;;;;10.90;53.70;100001.31;130481;1267;108743;-79
2022/04/19 11:04:40;;;;;;;12.90;10.00;;;;;;;10.93;52.75;100001.42;130364;1268;108631;-79
2022/04/19 11:07:46;;;;;;;11.20;9.40;;;;;;;10.87;52.79;100005.36;130546;1267;109027;-81
2022/04/19 11:10:52;;;;;;;10.60;8.90;;;;;;;10.82;52.66;100008.08;130290;1268;108961;-82
2022/04/19 11:14:20;;;;;;;10.10;8.90;;;;;;;10.78;52.51;100012.19;130516;1270;108954;-80
2022/04/19 11:17:28;;;;;;;17.50;12.60;;;;;;;10.88;52.06;100013.15;130414;1268;108669;-79
2022/04/19 11:20:47;;;;;;;14.10;11.20;;;;;;;10.96;52.96;100008.52;130419;1268;108934;-80
2022/04/19 11:23:52;;;;;;;10.80;9.30;;;;;;;11.16;52.35;100010.91;130333;1270;108763;-79
2022/04/19 11:26:58;;;;;;;10.00;8.50;;;;;;;11.31;51.72;100009.81;130272;1268;108857;-79
2022/04/19 11:30:14;;;;;;;10.00;8.70;;;;;;;11.43;51.14;100006.26;130301;1269;108781;-78
2022/04/19 11:33:28;;;;;;;12.60;9.90;;;;;;;11.44;51.66;100014.66;130338;1270;108970;-79
2022/04/19 11:36:35;;;;;;;10.80;9.40;;;;;;;11.53;51.20;100014.99;130348;1268;108622;-79
2022/04/19 11:46:47;;;;;;;12.40;10.70;;;;;;;11.35;50.96;100010.26;130306;1268;108491;-80
2022/04/19 11:49:53;;;;;;;11.40;9.70;;;;;;;11.32;50.80;100007.11;130284;1270;108872;-77
2022/04/19 11:53:00;;;;;;;10.90;9.60;;;;;;;11.33;50.04;100008.95;130416;1268;108690;-79
2022/04/19 11:56:06;;;;;;;10.70;9.60;;;;;;;11.31;49.84;100004.83;130337;1270;108945;-80
2022/04/19 11:59:12;;;;;;;11.70;10.10;;;;;;;11.34;50.16;100006.47;130365;1268;108972;-80
2022/04/19 12:02:19;;;;;;;11.50;10.30;;;;;;;11.31;49.88;100005.73;130336;1270;108799;-81
2022/04/19 12:05:29;;;;;;;12.20;10.10;;;;;;;11.47;50.20;100005.50;130378;1270;108723;-79
2022/04/19 12:08:38;;;;;;;11.50;10.00;;;;;;;11.55;49.76;100003.67;130345;1269;108684;-78
2022/04/19 12:11:44;;;;;;;12.30;10.00;;;;;;;11.66;50.39;100001.34;130437;1268;108808;-80
2022/04/19 12:14:53;;;;;;;12.80;10.70;;;;;;;11.79;49.98;100002.74;130382;1268;108920;-80
2022/04/19 12:17:59;;;;;;;13.40;11.10;;;;;;;11.76;49.91;99998.70;131711;1268;106965;-79
2022/04/19 12:21:06;;;;;;;12.50;10.60;;;;;;;11.73;49.57;99996.23;130646;1268;109122;-78
2022/04/19 12:24:23;;;;;;;12.30;10.00;;;;;;;11.68;49.97;99989.30;130350;1269;107213;-78
2022/04/19 12:27:30;;;;;;;11.60;9.90;;;;;;;11.67;49.87;99995.99;130298;1267;216583;-76
2022/04/19 12:30:46;;;;;;;12.50;11.10;;;;;;;11.69;49.84;99992.17;130484;1267;108912;-77
2022/04/19 12:33:55;;;;;;;13.90;11.80;;;;;;;11.48;48.85;99993.23;130442;1267;108709;-78
2022/04/19 12:37:07;;;;;;;12.10;10.20;;;;;;;11.38;49.42;99994.52;130434;1267;108712;-78
2022/04/19 12:40:13;;;;;;;11.10;9.60;;;;;;;11.41;48.86;99996.17;130454;1267;108755;-78
2022/04/19 12:43:19;;;;;;;11.50;9.90;;;;;;;11.33;49.04;99993.64;130500;1268;108866;-78
2022/04/19 12:46:25;;;;;;;11.20;9.90;;;;;;;11.44;49.22;99997.02;130528;1268;108805;-78
2022/04/19 12:49:32;;;;;;;12.10;10.70;;;;;;;11.57;48.63;99995.15;130417;1267;108932;-79
2022/04/19 12:52:38;;;;;;;11.20;10.00;;;;;;;11.54;49.08;99992.77;130369;1268;108589;-79
2022/04/19 12:56:15;;;;;;;11.80;10.30;;;;;;;11.58;48.96;100000.36;130568;1267;108658;-79
2022/04/19 12:59:20;;;;;;;12.10;10.50;;;;;;;11.56;48.73;100001.63;130461;1267;108789;-79
2022/04/19 13:02:26;;;;;;;11.60;10.10;;;;;;;11.57;48.63;99996.67;130411;1268;108786;-79
2022/04/19 13:12:19;;;;;;;14.90;12.30;;;;;;;11.09;48.07;100007.41;130421;1267;107560;-78
2022/04/19 13:15:25;;;;;;;12.90;11.10;;;;;;;11.14;48.85;100009.86;130304;1268;108734;-78
2022/04/19 13:18:31;;;;;;;12.50;10.60;;;;;;;11.19;48.28;100006.30;130280;1269;108695;-78
2022/04/19 13:21:37;;;;;;;11.60;10.10;;;;;;;11.22;48.23;100000.54;130246;1268;109964;-77
2022/04/19 13:24:44;;;;;;;11.80;10.10;;;;;;;11.20;48.42;100000.11;130322;1267;108741;-78
2022/04/19 13:27:50;;;;;;;12.40;10.30;;;;;;;11.23;48.22;100004.28;130370;1267;108689;-78
2022/04/19 13:30:56;;;;;;;14.40;11.30;;;;;;;11.19;48.34;100001.53;130293;1271;108914;-78
2022/04/19 13:34:02;;;;;;;10.50;9.40;;;;;;;11.05;47.92;100004.77;130238;1269;108567;-79
2022/04/19 13:37:09;;;;;;;12.50;10.40;;;;;;;10.84;47.54;100007.13;130257;1269;108465;-79
2022/04/19 13:40:15;;;;;;;11.80;10.00;;;;;;;10.60;47.63;100003.73;130332;1268;108844;-79
2022/04/19 13:43:20;;;;;;;10.60;9.30;;;;;;;10.55;48.24;100004.46;130283;1268;108869;-79
2022/04/19 13:46:27;;;;;;;10.90;9.40;;;;;;;10.59;47.90;100002.23;130229;1268;108792;-78
2022/04/19 13:49:32;;;;;;;109.40;81.80;;;;;;;10.60;47.38;99995.77;130263;1268;108787;-79
2022/04/19 13:52:38;;;;;;;22.80;18.00;;;;;;;10.60;47.95;99996.25;130223;1266;108930;-79
2022/04/19 13:55:44;;;;;;;15.20;11.80;;;;;;;10.75;47.86;99993.48;130248;1268;108631;-79
2022/04/19 13:58:50;;;;;;;16.30;12.60;;;;;;;10.90;47.82;99990.36;130282;1270;108670;-79
2022/04/19 14:01:56;;;;;;;11.60;9.90;;;;;;;11.05;47.53;99990.42;130213;1268;108879;-79
2022/04/19 14:05:03;;;;;;;10.30;8.90;;;;;;;11.08;46.87;99988.48;130276;1268;107099;-79
2022/04/19 14:08:09;;;;;;;10.60;9.30;;;;;;;11.10;46.96;99987.16;130272;1268;107596;-79
2022/04/19 14:11:15;;;;;;;10.20;8.80;;;;;;;11.06;46.97;99988.31;130288;1269;108838;-79
2022/04/19 14:14:21;;;;;;;9.50;8.50;;;;;;;11.07;46.68;99988.05;130261;1268;108094;-75
2022/04/19 14:17:27;;;;;;;9.40;8.20;;;;;;;11.08;46.78;99991.09;130580;1267;109098;-76
2022/04/19 14:20:33;;;;;;;10.30;9.20;;;;;;;11.07;46.61;99989.63;130394;1268;108798;-75
2022/04/19 14:23:39;;;;;;;10.60;9.20;;;;;;;11.07;46.94;99991.89;130478;1268;108726;-76
2022/04/19 14:26:45;;;;;;;10.70;9.60;;;;;;;11.04;47.11;99993.45;130416;1268;108699;-78
2022/04/19 14:33:18;;;;;;;28.20;20.30;;;;;;;11.11;47.38;99995.41;130432;1268;108668;-78
2022/04/19 14:36:25;;;;;;;14.70;11.80;;;;;;;11.15;47.12;99998.20;130458;1268;107714;-79
2022/04/19 14:39:32;;;;;;;12.70;10.20;;;;;;;11.15;46.89;99996.25;130466;1268;108735;-78
2022/04/19 14:42:38;;;;;;;21.70;16.60;;;;;;;11.10;47.37;99999.31;130365;1268;108784;-80
2022/04/19 14:45:43;;;;;;;13.90;11.10;;;;;;;11.09;47.24;99997.73;130444;1268;108816;-77
2022/04/19 14:48:49;;;;;;;12.60;10.10;;;;;;;11.10;47.23;100000.88;130406;1267;107543;-78
2022/04/19 14:55:19;;;;;;;11.40;10.00;;;;;;;11.12;46.90;100002.59;130440;1269;108710;-77
2022/04/19 14:58:25;;;;;;;15.40;11.50;;;;;;;11.01;47.10;100003.23;130527;1267;108639;-77
2022/04/19 15:01:31;;;;;;;13.20;10.10;;;;;;;10.97;47.13;100005.58;130445;1267;109104;-76
2022/04/19 15:04:37;;;;;;;13.80;10.80;;;;;;;10.92;47.02;100005.03;130410;1268;108642;-76
2022/04/19 15:07:42;;;;;;;13.30;10.50;;;;;;;10.76;46.65;100007.26;130288;1267;108885;-76
2022/04/19 15:10:48;;;;;;;15.00;10.50;;;;;;;10.73;46.69;100010.18;130847;1267;108954;-74
2022/04/19 15:13:54;;;;;;;13.80;10.60;;;;;;;10.73;47.02;100009.39;130447;1267;108676;-76
2022/04/19 15:16:59;;;;;;;10.90;8.90;;;;;;;10.72;46.64;100008.89;130611;1268;108796;-76